sensor_id;sensor_type;location;lat;lon;timestamp;pressure;altitude;pressure_sealevel;temperature;humidity
78825;BME280;68176;45.554;10.220;2023-02-28T00:01:46;100451.69;;;9.42;69.37
78825;BME280;68176;45.554;10.220;2023-02-28T00:04:16;100452.50;;;9.43;69.00
78825;BME280;68176;45.554;10.220;2023-02-28T00:06:46;100445.00;;;9.38;69.09
78825;BME280;68176;45.554;10.220;2023-02-28T00:09:15;100455.13;;;9.43;68.59
78825;BME280;68176;45.554;10.220;2023-02-28T00:11:46;100456.91;;;9.42;68.77
78825;BME280;68176;45.554;10.220;2023-02-28T00:14:16;100459.66;;;9.41;68.89
78825;BME280;68176;45.554;10.220;2023-02-28T00:16:46;100464.06;;;9.40;68.92
78825;BME280;68176;45.554;10.220;2023-02-28T00:19:16;100460.50;;;9.41;68.72
78825;BME280;68176;45.554;10.220;2023-02-28T00:21:45;100472.63;;;9.42;68.93
78825;BME280;68176;45.554;10.220;2023-02-28T00:24:16;100468.34;;;9.41;69.01
78825;BME280;68176;45.554;10.220;2023-02-28T00:26:49;100470.00;;;9.42;68.83
78825;BME280;68176;45.554;10.220;2023-02-28T00:29:16;100477.84;;;9.42;69.02
78825;BME280;68176;45.554;10.220;2023-02-28T00:31:46;100472.84;;;9.39;68.60
78825;BME280;68176;45.554;10.220;2023-02-28T00:34:16;100483.31;;;9.39;69.07
78825;BME280;68176;45.554;10.220;2023-02-28T00:36:46;100478.91;;;9.40;68.91
78825;BME280;68176;45.554;10.220;2023-02-28T00:39:16;100477.47;;;9.36;69.14
78825;BME280;68176;45.554;10.220;2023-02-28T00:41:46;100485.22;;;9.37;69.01
78825;BME280;68176;45.554;10.220;2023-02-28T00:44:16;100485.22;;;9.37;69.10
78825;BME280;68176;45.554;10.220;2023-02-28T00:46:46;100485.22;;;9.37;68.66
78825;BME280;68176;45.554;10.220;2023-02-28T00:49:16;100477.34;;;9.37;68.90
78825;BME280;68176;45.554;10.220;2023-02-28T00:51:46;100484.50;;;9.35;68.89
78825;BME280;68176;45.554;10.220;2023-02-28T00:54:16;100476.94;;;9.31;68.90
78825;BME280;68176;45.554;10.220;2023-02-28T00:56:46;100485.34;;;9.36;69.06
78825;BME280;68176;45.554;10.220;2023-02-28T00:59:17;100485.44;;;9.34;69.06
78825;BME280;68176;45.554;10.220;2023-02-28T01:01:46;100490.66;;;9.34;69.27
78825;BME280;68176;45.554;10.220;2023-02-28T01:04:16;100490.66;;;9.34;69.03
78825;BME280;68176;45.554;10.220;2023-02-28T01:06:46;100493.28;;;9.34;69.02
78825;BME280;68176;45.554;10.220;2023-02-28T01:09:16;100505.31;;;9.37;69.03
78825;BME280;68176;45.554;10.220;2023-02-28T01:11:46;100498.41;;;9.36;69.11
78825;BME280;68176;45.554;10.220;2023-02-28T01:14:17;100493.19;;;9.36;69.03
78825;BME280;68176;45.554;10.220;2023-02-28T01:16:46;100492.34;;;9.35;68.92
78825;BME280;68176;45.554;10.220;2023-02-28T01:19:16;100495.91;;;9.34;69.02
78825;BME280;68176;45.554;10.220;2023-02-28T01:21:46;100490.78;;;9.33;69.25
78825;BME280;68176;45.554;10.220;2023-02-28T01:24:16;100494.97;;;9.35;69.19
78825;BME280;68176;45.554;10.220;2023-02-28T01:26:46;100503.66;;;9.36;69.25
78825;BME280;68176;45.554;10.220;2023-02-28T01:29:16;100497.78;;;9.32;69.24
78825;BME280;68176;45.554;10.220;2023-02-28T01:31:46;100509.69;;;9.36;68.86
78825;BME280;68176;45.554;10.220;2023-02-28T01:34:16;100500.41;;;9.32;69.09
78825;BME280;68176;45.554;10.220;2023-02-28T01:36:46;100508.28;;;9.32;69.24
78825;BME280;68176;45.554;10.220;2023-02-28T01:39:16;100506.69;;;9.30;69.04
78825;BME280;68176;45.554;10.220;2023-02-28T01:41:46;100508.47;;;9.29;69.12
78825;BME280;68176;45.554;10.220;2023-02-28T01:47:18;100502.50;;;9.27;69.45
78825;BME280;68176;45.554;10.220;2023-02-28T01:49:44;100499.38;;;9.22;69.59
78825;BME280;68176;45.554;10.220;2023-02-28T01:52:14;100496.53;;;9.25;69.54
78825;BME280;68176;45.554;10.220;2023-02-28T01:54:46;100504.41;;;9.25;69.47
78825;BME280;68176;45.554;10.220;2023-02-28T01:57:17;100501.66;;;9.27;69.34
78825;BME280;68176;45.554;10.220;2023-02-28T01:59:48;100500.09;;;9.24;69.36
78825;BME280;68176;45.554;10.220;2023-02-28T02:02:16;100493.44;;;9.20;69.42
78825;BME280;68176;45.554;10.220;2023-02-28T02:04:53;100491.53;;;9.22;69.82
78825;BME280;68176;45.554;10.220;2023-02-28T02:07:21;100500.31;;;9.21;69.73
78825;BME280;68176;45.554;10.220;2023-02-28T02:09:46;100491.84;;;9.18;69.35
78825;BME280;68176;45.554;10.220;2023-02-28T02:12:56;100489.84;;;9.21;69.71
78825;BME280;68176;45.554;10.220;2023-02-28T02:15:34;100491.75;;;9.19;69.58
78825;BME280;68176;45.554;10.220;2023-02-28T02:23:29;100484.13;;;9.16;69.55
78825;BME280;68176;45.554;10.220;2023-02-28T02:30:02;100493.63;;;9.17;70.06
78825;BME280;68176;45.554;10.220;2023-02-28T02:37:37;100495.50;;;9.15;70.13
78825;BME280;68176;45.554;10.220;2023-02-28T02:40:16;100487.88;;;9.12;70.05
78825;BME280;68176;45.554;10.220;2023-02-28T02:43:03;100488.59;;;9.14;69.89
78825;BME280;68176;45.554;10.220;2023-02-28T02:45:53;100478.56;;;9.08;69.92
78825;BME280;68176;45.554;10.220;2023-02-28T02:48:29;100482.66;;;9.12;70.25
78825;BME280;68176;45.554;10.220;2023-02-28T02:50:58;100483.56;;;9.11;70.33
78825;BME280;68176;45.554;10.220;2023-02-28T02:53:30;100485.47;;;9.09;70.05
78825;BME280;68176;45.554;10.220;2023-02-28T02:55:59;100488.94;;;9.09;70.08
78825;BME280;68176;45.554;10.220;2023-02-28T02:58:28;100485.38;;;9.10;70.21
78825;BME280;68176;45.554;10.220;2023-02-28T03:01:08;100477.63;;;9.09;70.17
78825;BME280;68176;45.554;10.220;2023-02-28T03:03:36;100480.25;;;9.09;70.46
78825;BME280;68176;45.554;10.220;2023-02-28T03:06:02;100487.88;;;9.12;69.87
78825;BME280;68176;45.554;10.220;2023-02-28T03:08:40;100480.25;;;9.09;69.91
78825;BME280;68176;45.554;10.220;2023-02-28T03:11:12;100475.22;;;9.06;70.52
78825;BME280;68176;45.554;10.220;2023-02-28T03:16:36;100471.69;;;9.07;69.86
78825;BME280;68176;45.554;10.220;2023-02-28T03:19:26;100474.16;;;9.08;70.04
78825;BME280;68176;45.554;10.220;2023-02-28T03:22:00;100475.84;;;9.09;70.31
78825;BME280;68176;45.554;10.220;2023-02-28T03:27:30;100476.78;;;9.08;70.09
78825;BME280;68176;45.554;10.220;2023-02-28T03:30:17;100482.03;;;9.08;70.00
78825;BME280;68176;45.554;10.220;2023-02-28T03:32:53;100480.25;;;9.09;70.12
78825;BME280;68176;45.554;10.220;2023-02-28T03:35:23;100473.44;;;9.06;70.13
78825;BME280;68176;45.554;10.220;2023-02-28T03:37:53;100486.41;;;9.08;70.28
78825;BME280;68176;45.554;10.220;2023-02-28T03:40:22;100476.38;;;9.02;70.26
78825;BME280;68176;45.554;10.220;2023-02-28T03:42:52;100480.66;;;9.03;70.06
78825;BME280;68176;45.554;10.220;2023-02-28T03:45:32;100482.34;;;9.04;70.33
78825;BME280;68176;45.554;10.220;2023-02-28T03:48:05;100475.44;;;9.03;70.38
78825;BME280;68176;45.554;10.220;2023-02-28T03:50:38;100490.94;;;9.06;70.10
78825;BME280;68176;45.554;10.220;2023-02-28T03:53:13;100490.09;;;9.05;70.08
78825;BME280;68176;45.554;10.220;2023-02-28T03:55:43;100486.63;;;9.05;70.08
78825;BME280;68176;45.554;10.220;2023-02-28T03:58:30;100490.09;;;9.05;69.99
78825;BME280;68176;45.554;10.220;2023-02-28T04:01:20;100489.25;;;9.05;70.54
78825;BME280;68176;45.554;10.220;2023-02-28T04:03:46;100487.81;;;9.01;70.00
78825;BME280;68176;45.554;10.220;2023-02-28T04:06:20;100496.38;;;9.03;69.83
78825;BME280;68176;45.554;10.220;2023-02-28T04:08:46;100491.34;;;9.00;70.01
78825;BME280;68176;45.554;10.220;2023-02-28T04:11:23;100492.81;;;9.04;70.39
78825;BME280;68176;45.554;10.220;2023-02-28T04:13:49;100496.59;;;9.00;70.27
78825;BME280;68176;45.554;10.220;2023-02-28T04:16:15;100500.88;;;9.01;69.73
78825;BME280;68176;45.554;10.220;2023-02-28T04:18:43;100503.28;;;9.04;70.08
78825;BME280;68176;45.554;10.220;2023-02-28T04:21:13;100505.06;;;9.03;69.54
78825;BME280;68176;45.554;10.220;2023-02-28T04:23:43;100515.19;;;9.08;70.10
78825;BME280;68176;45.554;10.220;2023-02-28T04:26:13;100509.97;;;9.08;69.82
78825;BME280;68176;45.554;10.220;2023-02-28T04:28:43;100501.19;;;9.09;69.91
78825;BME280;68176;45.554;10.220;2023-02-28T04:31:13;100513.31;;;9.10;70.08
78825;BME280;68176;45.554;10.220;2023-02-28T04:33:43;100503.06;;;9.07;70.00
78825;BME280;68176;45.554;10.220;2023-02-28T04:36:13;100508.09;;;9.10;69.60
78825;BME280;68176;45.554;10.220;2023-02-28T04:38:44;100496.16;;;9.06;69.77
78825;BME280;68176;45.554;10.220;2023-02-28T04:41:13;100512.47;;;9.09;69.76
78825;BME280;68176;45.554;10.220;2023-02-28T04:43:43;100509.03;;;9.09;69.67
78825;BME280;68176;45.554;10.220;2023-02-28T04:46:13;100509.97;;;9.08;69.77
78825;BME280;68176;45.554;10.220;2023-02-28T04:48:43;100509.16;;;9.07;69.63
78825;BME280;68176;45.554;10.220;2023-02-28T04:51:15;100516.88;;;9.09;70.01
78825;BME280;68176;45.554;10.220;2023-02-28T04:53:43;100509.75;;;9.11;69.60
78825;BME280;68176;45.554;10.220;2023-02-28T04:56:15;100514.97;;;9.11;69.63
78825;BME280;68176;45.554;10.220;2023-02-28T04:58:43;100503.78;;;9.09;69.41
78825;BME280;68176;45.554;10.220;2023-02-28T05:03:45;100507.69;;;9.03;69.79
78825;BME280;68176;45.554;10.220;2023-02-28T05:06:14;100501.59;;;9.03;69.93
78825;BME280;68176;45.554;10.220;2023-02-28T05:08:43;100511.84;;;9.06;69.58
78825;BME280;68176;45.554;10.220;2023-02-28T05:11:19;100508.31;;;9.07;69.36
78825;BME280;68176;45.554;10.220;2023-02-28T05:13:49;100513.53;;;9.07;69.55
78825;BME280;68176;45.554;10.220;2023-02-28T05:16:15;100513.00;;;9.02;69.47
78825;BME280;68176;45.554;10.220;2023-02-28T05:18:44;100506.13;;;9.01;69.34
78825;BME280;68176;45.554;10.220;2023-02-28T05:21:40;100511.00;;;9.05;69.33
78825;BME280;68176;45.554;10.220;2023-02-28T05:24:10;100513.13;;;9.00;69.58
78825;BME280;68176;45.554;10.220;2023-02-28T05:26:38;100513.97;;;9.01;69.50
78825;BME280;68176;45.554;10.220;2023-02-28T05:29:03;100516.78;;;8.98;69.47
78825;BME280;68176;45.554;10.220;2023-02-28T05:31:31;100514.19;;;8.98;69.83
78825;BME280;68176;45.554;10.220;2023-02-28T05:34:01;100527.97;;;9.00;69.62
78825;BME280;68176;45.554;10.220;2023-02-28T05:36:31;100517.72;;;8.97;69.40
78825;BME280;68176;45.554;10.220;2023-02-28T05:39:01;100517.50;;;9.00;69.40
78825;BME280;68176;45.554;10.220;2023-02-28T05:41:31;100527.13;;;8.99;69.49
78825;BME280;68176;45.554;10.220;2023-02-28T05:44:01;100527.25;;;8.98;69.43
78825;BME280;68176;45.554;10.220;2023-02-28T05:46:31;100531.53;;;8.99;69.65
78825;BME280;68176;45.554;10.220;2023-02-28T05:49:01;100534.25;;;8.97;69.31
78825;BME280;68176;45.554;10.220;2023-02-28T05:51:31;100536.88;;;8.97;69.50
78825;BME280;68176;45.554;10.220;2023-02-28T05:54:01;100528.19;;;8.97;69.20
78825;BME280;68176;45.554;10.220;2023-02-28T05:56:31;100521.28;;;8.96;69.67
78825;BME280;68176;45.554;10.220;2023-02-28T05:59:01;100528.28;;;8.95;69.38
78825;BME280;68176;45.554;10.220;2023-02-28T06:01:35;100533.22;;;9.00;69.44
78825;BME280;68176;45.554;10.220;2023-02-28T06:04:03;100522.97;;;8.97;69.54
78825;BME280;68176;45.554;10.220;2023-02-28T06:06:31;100523.78;;;8.97;69.60
78825;BME280;68176;45.554;10.220;2023-02-28T06:09:01;100524.63;;;8.98;69.25
78825;BME280;68176;45.554;10.220;2023-02-28T06:11:31;100526.50;;;8.96;69.50
78825;BME280;68176;45.554;10.220;2023-02-28T06:14:04;100517.72;;;8.97;69.28
78825;BME280;68176;45.554;10.220;2023-02-28T06:16:33;100530.69;;;8.98;69.16
78825;BME280;68176;45.554;10.220;2023-02-28T06:19:19;100526.50;;;8.96;69.36
78825;BME280;68176;45.554;10.220;2023-02-28T06:21:49;100525.78;;;8.94;69.39
78825;BME280;68176;45.554;10.220;2023-02-28T06:24:14;100525.88;;;8.92;69.32
78825;BME280;68176;45.554;10.220;2023-02-28T06:26:40;100515.00;;;8.86;69.25
78825;BME280;68176;45.554;10.220;2023-02-28T06:29:08;100520.75;;;8.91;69.30
78825;BME280;68176;45.554;10.220;2023-02-28T06:31:39;100524.09;;;8.93;69.37
78825;BME280;68176;45.554;10.220;2023-02-28T06:34:09;100526.72;;;8.93;69.55
78825;BME280;68176;45.554;10.220;2023-02-28T06:36:40;100532.69;;;8.95;69.27
78825;BME280;68176;45.554;10.220;2023-02-28T06:39:09;100544.09;;;8.94;69.27
78825;BME280;68176;45.554;10.220;2023-02-28T06:41:39;100526.72;;;8.93;69.36
78825;BME280;68176;45.554;10.220;2023-02-28T06:44:18;100542.19;;;8.96;69.33
78825;BME280;68176;45.554;10.220;2023-02-28T06:46:44;100546.78;;;8.92;69.41
78825;BME280;68176;45.554;10.220;2023-02-28T06:49:10;100549.63;;;8.89;69.36
78825;BME280;68176;45.554;10.220;2023-02-28T06:51:42;100546.78;;;8.92;69.31
78825;BME280;68176;45.554;10.220;2023-02-28T06:54:10;100562.69;;;8.89;69.15
78825;BME280;68176;45.554;10.220;2023-02-28T06:56:39;100559.78;;;8.94;69.44
78825;BME280;68176;45.554;10.220;2023-02-28T06:59:08;100562.41;;;8.94;69.41
78825;BME280;68176;45.554;10.220;2023-02-28T07:01:39;100565.03;;;8.94;68.92
78825;BME280;68176;45.554;10.220;2023-02-28T07:04:09;100566.50;;;8.98;69.41
78825;BME280;68176;45.554;10.220;2023-02-28T07:06:39;100568.34;;;8.96;69.18
78825;BME280;68176;45.554;10.220;2023-02-28T07:09:09;100574.22;;;8.99;69.36
78825;BME280;68176;45.554;10.220;2023-02-28T07:11:39;100561.47;;;8.95;69.17
78825;BME280;68176;45.554;10.220;2023-02-28T07:14:09;100563.88;;;8.98;69.23
78825;BME280;68176;45.554;10.220;2023-02-28T07:16:39;100564.81;;;8.97;68.67
78825;BME280;68176;45.554;10.220;2023-02-28T07:19:09;100562.91;;;8.99;69.17
78825;BME280;68176;45.554;10.220;2023-02-28T07:21:39;100573.38;;;8.99;69.15
78825;BME280;68176;45.554;10.220;2023-02-28T07:24:09;100586.25;;;9.02;69.29
78825;BME280;68176;45.554;10.220;2023-02-28T07:26:39;100576.19;;;8.96;69.20
78825;BME280;68176;45.554;10.220;2023-02-28T07:29:09;100582.19;;;8.98;69.50
78825;BME280;68176;45.554;10.220;2023-02-28T07:31:39;100576.97;;;8.98;69.23
78825;BME280;68176;45.554;10.220;2023-02-28T07:34:09;100576.97;;;8.98;69.48
78825;BME280;68176;45.554;10.220;2023-02-28T07:36:39;100582.91;;;9.00;68.73
78825;BME280;68176;45.554;10.220;2023-02-28T07:39:09;100586.47;;;8.99;68.83
78825;BME280;68176;45.554;10.220;2023-02-28T07:41:39;100589.91;;;8.99;69.07
78825;BME280;68176;45.554;10.220;2023-02-28T07:44:10;100575.28;;;8.97;68.77
78825;BME280;68176;45.554;10.220;2023-02-28T07:46:39;100583.63;;;9.02;68.88
78825;BME280;68176;45.554;10.220;2023-02-28T07:49:09;100586.38;;;9.00;68.91
78825;BME280;68176;45.554;10.220;2023-02-28T07:51:39;100586.25;;;9.02;69.05
78825;BME280;68176;45.554;10.220;2023-02-28T07:54:09;100581.22;;;8.99;68.97
78825;BME280;68176;45.554;10.220;2023-02-28T07:56:39;100588.88;;;9.02;68.99
78825;BME280;68176;45.554;10.220;2023-02-28T07:59:09;100585.53;;;9.00;69.02
78825;BME280;68176;45.554;10.220;2023-02-28T08:01:39;100588.88;;;9.02;69.01
78825;BME280;68176;45.554;10.220;2023-02-28T08:04:09;100580.09;;;9.03;68.96
78825;BME280;68176;45.554;10.220;2023-02-28T08:06:39;100586.16;;;9.03;69.33
78825;BME280;68176;45.554;10.220;2023-02-28T08:09:09;100585.31;;;9.03;69.22
78825;BME280;68176;45.554;10.220;2023-02-28T08:11:39;100587.94;;;9.03;69.03
78825;BME280;68176;45.554;10.220;2023-02-28T08:14:09;100578.31;;;9.03;69.24
78825;BME280;68176;45.554;10.220;2023-02-28T08:16:39;100581.78;;;9.04;69.42
78825;BME280;68176;45.554;10.220;2023-02-28T08:19:09;100578.41;;;9.02;69.39
78825;BME280;68176;45.554;10.220;2023-02-28T08:21:39;100580.09;;;9.03;69.23
78825;BME280;68176;45.554;10.220;2023-02-28T08:24:09;100593.16;;;9.03;69.22
78825;BME280;68176;45.554;10.220;2023-02-28T08:26:39;100585.31;;;9.03;69.62
78825;BME280;68176;45.554;10.220;2023-02-28T08:29:09;100576.63;;;9.02;69.20
78825;BME280;68176;45.554;10.220;2023-02-28T08:31:39;100598.69;;;9.11;69.73
78825;BME280;68176;45.554;10.220;2023-02-28T08:34:11;100596.84;;;9.13;69.52
78825;BME280;68176;45.554;10.220;2023-02-28T08:36:39;100589.91;;;9.12;69.62
78825;BME280;68176;45.554;10.220;2023-02-28T08:39:09;100595.06;;;9.14;69.79
78825;BME280;68176;45.554;10.220;2023-02-28T08:41:39;100602.06;;;9.13;69.43
78825;BME280;68176;45.554;10.220;2023-02-28T08:44:09;100595.88;;;9.14;69.71
78825;BME280;68176;45.554;10.220;2023-02-28T08:46:39;100594.94;;;9.15;69.60
78825;BME280;68176;45.554;10.220;2023-02-28T08:49:09;100599.47;;;9.13;69.53
78825;BME280;68176;45.554;10.220;2023-02-28T08:51:39;100597.06;;;9.10;69.70
78825;BME280;68176;45.554;10.220;2023-02-28T08:54:09;100604.56;;;9.15;69.70
78825;BME280;68176;45.554;10.220;2023-02-28T08:56:39;100605.41;;;9.15;69.82
78825;BME280;68176;45.554;10.220;2023-02-28T08:59:09;100600.19;;;9.15;69.70
78825;BME280;68176;45.554;10.220;2023-02-28T09:01:39;100599.34;;;9.15;69.66
78825;BME280;68176;45.554;10.220;2023-02-28T09:04:09;100603.72;;;9.14;69.88
78825;BME280;68176;45.554;10.220;2023-02-28T09:06:39;100605.41;;;9.15;69.94
78825;BME280;68176;45.554;10.220;2023-02-28T09:09:10;100604.78;;;9.11;69.87
78825;BME280;68176;45.554;10.220;2023-02-28T09:11:39;100611.50;;;9.16;69.83
78825;BME280;68176;45.554;10.220;2023-02-28T09:14:09;100619.44;;;9.14;70.13
78825;BME280;68176;45.554;10.220;2023-02-28T09:16:39;100608.97;;;9.14;69.76
78825;BME280;68176;45.554;10.220;2023-02-28T09:19:12;100613.16;;;9.17;69.80
78825;BME280;68176;45.554;10.220;2023-02-28T09:21:48;100613.25;;;9.15;69.54
78825;BME280;68176;45.554;10.220;2023-02-28T09:24:13;100604.78;;;9.11;70.05
78825;BME280;68176;45.554;10.220;2023-02-28T09:26:40;100618.50;;;9.15;69.98
78825;BME280;68176;45.554;10.220;2023-02-28T09:29:09;100616.94;;;9.13;69.69
78825;BME280;68176;45.554;10.220;2023-02-28T09:31:39;100609.91;;;9.13;70.04
78825;BME280;68176;45.554;10.220;2023-02-28T09:34:09;100620.91;;;9.18;69.67
78825;BME280;68176;45.554;10.220;2023-02-28T09:36:39;100608.75;;;9.17;69.48
78825;BME280;68176;45.554;10.220;2023-02-28T09:39:10;100620.06;;;9.18;69.47
78825;BME280;68176;45.554;10.220;2023-02-28T09:41:42;100612.34;;;9.16;68.88
78825;BME280;68176;45.554;10.220;2023-02-28T09:44:42;100615.78;;;9.17;69.44
78825;BME280;68176;45.554;10.220;2023-02-28T09:47:29;100616.59;;;9.17;69.69
78825;BME280;68176;45.554;10.220;2023-02-28T09:49:59;100610.66;;;9.15;69.96
78825;BME280;68176;45.554;10.220;2023-02-28T09:52:29;100608.88;;;9.16;69.94
78825;BME280;68176;45.554;10.220;2023-02-28T09:54:55;100611.06;;;9.22;59.87
78825;BME280;68176;45.554;10.220;2023-02-28T09:57:37;100612.19;;;9.05;53.36
78825;BME280;68176;45.554;10.220;2023-02-28T10:32:57;100616.50;;;9.31;49.14
78825;BME280;68176;45.554;10.220;2023-02-28T11:01:26;100580.19;;;9.88;47.12
78825;BME280;68176;45.554;10.220;2023-02-28T11:03:59;100587.25;;;9.62;44.96
78825;BME280;68176;45.554;10.220;2023-02-28T11:06:43;100579.16;;;9.78;47.12
78825;BME280;68176;45.554;10.220;2023-02-28T11:09:18;100581.06;;;10.00;47.05
78825;BME280;68176;45.554;10.220;2023-02-28T11:11:48;100582.38;;;10.18;46.67
78825;BME280;68176;45.554;10.220;2023-02-28T11:14:21;100571.41;;;10.37;44.73
78825;BME280;68176;45.554;10.220;2023-02-28T11:16:48;100577.25;;;10.40;45.89
78825;BME280;68176;45.554;10.220;2023-02-28T11:19:38;100577.50;;;10.01;44.09
78825;BME280;68176;45.554;10.220;2023-02-28T11:22:05;100565.09;;;9.92;44.54
78825;BME280;68176;45.554;10.220;2023-02-28T11:24:41;100559.72;;;10.30;44.98
78825;BME280;68176;45.554;10.220;2023-02-28T11:27:25;100557.72;;;10.44;45.95
78825;BME280;68176;45.554;10.220;2023-02-28T11:29:50;100544.84;;;10.41;45.46
78825;BME280;68176;45.554;10.220;2023-02-28T11:32:18;100551.78;;;10.53;42.87
78825;BME280;68176;45.554;10.220;2023-02-28T11:34:45;100537.19;;;10.27;43.66
78825;BME280;68176;45.554;10.220;2023-02-28T11:37:17;100542.44;;;9.67;43.47
78825;BME280;68176;45.554;10.220;2023-02-28T11:39:45;100544.50;;;9.98;44.67
78825;BME280;68176;45.554;10.220;2023-02-28T11:50:32;100531.69;;;10.06;43.80
78825;BME280;68176;45.554;10.220;2023-02-28T11:53:05;100534.84;;;10.46;44.91
78825;BME280;68176;45.554;10.220;2023-02-28T11:55:44;100523.47;;;10.69;43.76
78825;BME280;68176;45.554;10.220;2023-02-28T11:58:31;100522.28;;;10.74;43.73
78825;BME280;68176;45.554;10.220;2023-02-28T12:11:52;100498.09;;;11.03;40.89
78825;BME280;68176;45.554;10.220;2023-02-28T12:20:18;100494.16;;;10.06;44.58
78825;BME280;68176;45.554;10.220;2023-02-28T12:22:49;100490.47;;;10.32;43.67
78825;BME280;68176;45.554;10.220;2023-02-28T12:25:36;100486.97;;;10.55;46.88
78825;BME280;68176;45.554;10.220;2023-02-28T12:28:09;100483.38;;;10.56;43.80
78825;BME280;68176;45.554;10.220;2023-02-28T12:30:41;100478.59;;;10.50;43.86
78825;BME280;68176;45.554;10.220;2023-02-28T12:33:15;100466.59;;;10.81;45.65
78825;BME280;68176;45.554;10.220;2023-02-28T12:35:57;100475.31;;;11.04;44.49
78825;BME280;68176;45.554;10.220;2023-02-28T12:38:29;100467.66;;;10.79;42.24
78825;BME280;68176;45.554;10.220;2023-02-28T12:43:47;100468.66;;;11.00;41.26
78825;BME280;68176;45.554;10.220;2023-02-28T12:46:21;100465.66;;;10.71;41.52
78825;BME280;68176;45.554;10.220;2023-02-28T12:48:52;100466.38;;;10.95;40.55
78825;BME280;68176;45.554;10.220;2023-02-28T12:51:21;100453.59;;;11.13;41.43
78825;BME280;68176;45.554;10.220;2023-02-28T12:59:44;100449.63;;;12.36;39.15
78825;BME280;68176;45.554;10.220;2023-02-28T13:10:50;100436.97;;;11.89;38.92
78825;BME280;68176;45.554;10.220;2023-02-28T13:13:23;100434.38;;;12.30;40.23
78825;BME280;68176;45.554;10.220;2023-02-28T13:16:09;100430.69;;;12.63;39.50
78825;BME280;68176;45.554;10.220;2023-02-28T13:21:08;100425.22;;;12.75;39.17
78825;BME280;68176;45.554;10.220;2023-02-28T13:26:09;100423.91;;;12.40;36.87
78825;BME280;68176;45.554;10.220;2023-02-28T13:29:00;100434.09;;;11.49;40.65
78825;BME280;68176;45.554;10.220;2023-02-28T13:31:27;100429.22;;;11.22;39.20
78825;BME280;68176;45.554;10.220;2023-02-28T13:36:31;100421.59;;;12.46;39.36
78825;BME280;68176;45.554;10.220;2023-02-28T13:38:58;100430.19;;;14.16;36.18
78825;BME280;68176;45.554;10.220;2023-02-28T13:46:29;100412.19;;;17.47;28.47
78825;BME280;68176;45.554;10.220;2023-02-28T13:48:55;100411.97;;;19.33;26.25
78825;BME280;68176;45.554;10.220;2023-02-28T14:09:40;100414.50;;;17.50;26.96
78825;BME280;68176;45.554;10.220;2023-02-28T14:16:08;100419.59;;;14.54;30.54
78825;BME280;68176;45.554;10.220;2023-02-28T14:19:25;100412.75;;;14.71;31.82
78825;BME280;68176;45.554;10.220;2023-02-28T14:37:36;100380.19;;;19.08;25.25
78825;BME280;68176;45.554;10.220;2023-02-28T14:40:40;100380.13;;;19.16;24.56
78825;BME280;68176;45.554;10.220;2023-02-28T14:43:47;100372.78;;;19.80;23.20
78825;BME280;68176;45.554;10.220;2023-02-28T14:46:20;100366.19;;;20.13;24.37
78825;BME280;68176;45.554;10.220;2023-02-28T14:49:07;100359.91;;;19.69;24.56
78825;BME280;68176;45.554;10.220;2023-02-28T15:02:37;100360.59;;;12.62;36.17
78825;BME280;68176;45.554;10.220;2023-02-28T15:05:30;100365.50;;;12.66;38.59
78825;BME280;68176;45.554;10.220;2023-02-28T15:08:26;100368.22;;;13.05;35.31
78825;BME280;68176;45.554;10.220;2023-02-28T15:11:21;100361.53;;;12.91;36.73
78825;BME280;68176;45.554;10.220;2023-02-28T15:13:56;100357.78;;;12.44;37.19
78825;BME280;68176;45.554;10.220;2023-02-28T15:20:00;100354.41;;;12.12;38.43
78825;BME280;68176;45.554;10.220;2023-02-28T15:22:42;100357.03;;;12.12;39.30
78825;BME280;68176;45.554;10.220;2023-02-28T15:25:40;100354.72;;;11.98;40.11
78825;BME280;68176;45.554;10.220;2023-02-28T15:28:31;100355.94;;;10.76;41.01
78825;BME280;68176;45.554;10.220;2023-02-28T15:31:29;100361.03;;;11.11;39.72
78825;BME280;68176;45.554;10.220;2023-02-28T15:40:49;100358.19;;;11.46;40.62
78825;BME280;68176;45.554;10.220;2023-02-28T15:43:42;100349.63;;;10.90;40.97
78825;BME280;68176;45.554;10.220;2023-02-28T15:46:27;100359.19;;;10.57;41.95
78825;BME280;68176;45.554;10.220;2023-02-28T15:48:56;100346.25;;;10.99;41.64
78825;BME280;68176;45.554;10.220;2023-02-28T15:51:43;100350.53;;;11.11;41.87
78825;BME280;68176;45.554;10.220;2023-02-28T15:54:35;100352.72;;;10.73;41.78
78825;BME280;68176;45.554;10.220;2023-02-28T15:57:33;100340.34;;;10.75;40.96
78825;BME280;68176;45.554;10.220;2023-02-28T16:00:40;100346.88;;;10.47;41.65
78825;BME280;68176;45.554;10.220;2023-02-28T16:03:42;100342.25;;;10.50;43.50
78825;BME280;68176;45.554;10.220;2023-02-28T16:06:35;100353.91;;;10.68;43.55
78825;BME280;68176;45.554;10.220;2023-02-28T16:09:13;100350.81;;;10.41;43.70
78825;BME280;68176;45.554;10.220;2023-02-28T16:11:46;100333.84;;;10.01;44.55
78825;BME280;68176;45.554;10.220;2023-02-28T16:14:18;100352.47;;;10.31;44.39
78825;BME280;68176;45.554;10.220;2023-02-28T16:16:50;100347.03;;;10.45;44.03
78825;BME280;68176;45.554;10.220;2023-02-28T16:19:32;100340.34;;;10.52;44.07
78825;BME280;68176;45.554;10.220;2023-02-28T16:21:57;100341.53;;;10.59;44.41
78825;BME280;68176;45.554;10.220;2023-02-28T16:24:24;100347.97;;;10.66;44.29
78825;BME280;68176;45.554;10.220;2023-02-28T16:26:52;100348.31;;;10.73;45.02
78825;BME280;68176;45.554;10.220;2023-02-28T16:29:30;100332.69;;;10.71;44.75
78825;BME280;68176;45.554;10.220;2023-02-28T16:31:56;100342.38;;;10.71;45.32
78825;BME280;68176;45.554;10.220;2023-02-28T16:34:25;100343.91;;;10.74;45.21
78825;BME280;68176;45.554;10.220;2023-02-28T16:36:51;100343.66;;;10.77;45.65